Time;durP1;ratioP1;P1;durP2;ratioP2;P2;SDS_P1;SDS_P2;PMS_P1;PMS_P2;Temp;Humidity;BMP_temperature;BMP_pressure;BME280_temperature;BME280_humidity;BME280_pressure;Samples;Min_cycle;Max_cycle;Signal;HPM_P1;HPM_P2
2023/09/08 00:00:47;;;;;;;5.20;4.60;;;;;;;21.88;96.45;101581.69;5208568;28;20029;-74
2023/09/08 00:03:21;;;;;;;6.27;5.13;;;;;;;21.81;97.81;101573.59;5208535;28;20061;-74
2023/09/08 00:05:52;;;;;;;8.27;4.88;;;;;;;21.67;99.70;101579.75;5207422;28;20034;-74
2023/09/08 00:08:24;;;;;;;6.17;5.07;;;;;;;21.68;99.92;101576.09;5207068;28;20068;-74
2023/09/08 00:10:55;;;;;;;6.20;5.17;;;;;;;21.65;100.00;101574.63;5207942;28;20136;-75
2023/09/08 00:13:26;;;;;;;7.03;5.50;;;;;;;21.49;100.00;101578.31;5207792;28;20038;-74
2023/09/08 00:15:57;;;;;;;7.00;5.07;;;;;;;21.44;100.00;101585.19;5208224;28;20034;-74
2023/09/08 00:18:29;;;;;;;7.07;5.20;;;;;;;21.34;100.00;101580.16;5207535;28;20065;-74
2023/09/08 00:21:00;;;;;;;5.70;5.00;;;;;;;21.30;100.00;101581.50;5207362;28;20033;-74
2023/09/08 00:23:31;;;;;;;6.60;5.30;;;;;;;21.18;100.00;101585.63;5209211;28;20033;-74
2023/09/08 00:26:02;;;;;;;8.83;5.70;;;;;;;21.12;100.00;101587.16;5207634;28;20137;-74
2023/09/08 00:28:34;;;;;;;6.60;5.17;;;;;;;21.05;100.00;101583.56;5208905;28;20049;-74
2023/09/08 00:31:05;;;;;;;7.93;5.90;;;;;;;21.05;100.00;101586.22;5209446;28;20041;-74
2023/09/08 00:33:37;;;;;;;5.87;5.27;;;;;;;20.89;100.00;101582.72;5209781;28;20034;-74
2023/09/08 00:36:08;;;;;;;8.70;5.13;;;;;;;20.95;100.00;101586.50;5208681;28;20022;-74
2023/09/08 00:38:39;;;;;;;7.33;5.43;;;;;;;20.90;100.00;101588.84;5207609;28;20080;-74
2023/09/08 00:41:11;;;;;;;6.23;5.60;;;;;;;20.94;100.00;101582.16;5207940;28;20096;-74
2023/09/08 00:43:42;;;;;;;6.17;5.50;;;;;;;20.88;100.00;101577.56;5208173;28;20037;-74
2023/09/08 00:46:13;;;;;;;7.50;5.90;;;;;;;20.96;100.00;101579.34;5206095;28;20042;-74
2023/09/08 00:48:45;;;;;;;5.80;5.13;;;;;;;20.97;100.00;101583.66;5206608;28;20570;-74
2023/09/08 00:51:17;;;;;;;6.53;5.60;;;;;;;20.93;100.00;101579.69;5208042;28;20172;-74
2023/09/08 00:53:49;;;;;;;6.17;5.07;;;;;;;20.85;100.00;101581.41;5207654;28;20037;-74
2023/09/08 00:56:21;;;;;;;7.78;5.50;;;;;;;20.84;100.00;101581.59;5207081;28;20053;-74
2023/09/08 00:58:52;;;;;;;7.60;5.27;;;;;;;20.85;100.00;101576.09;5207217;28;20029;-74
2023/09/08 01:01:23;;;;;;;7.33;5.97;;;;;;;20.80;100.00;101580.31;5206867;28;20069;-74
2023/09/08 01:03:54;;;;;;;7.27;5.77;;;;;;;20.77;100.00;101586.00;5206222;28;20557;-74
2023/09/08 01:06:27;;;;;;;6.93;5.50;;;;;;;20.73;100.00;101576.72;5206423;28;20053;-74
2023/09/08 01:08:59;;;;;;;7.38;5.53;;;;;;;20.70;100.00;101574.41;5207805;28;20096;-74
2023/09/08 01:11:31;;;;;;;6.28;5.40;;;;;;;20.74;100.00;101567.69;5205675;28;20496;-74
2023/09/08 01:14:02;;;;;;;7.32;5.80;;;;;;;20.64;100.00;101574.09;5205896;28;20679;-74
2023/09/08 01:16:34;;;;;;;7.27;5.63;;;;;;;20.78;100.00;101583.13;5207871;28;20037;-74
2023/09/08 01:19:11;;;;;;;8.13;6.20;;;;;;;20.76;100.00;101569.19;5205634;28;20119;-74
2023/09/08 01:22:05;;;;;;;6.45;5.57;;;;;;;20.80;100.00;101575.81;5206194;28;20415;-74
2023/09/08 01:25:03;;;;;;;6.13;5.53;;;;;;;20.65;100.00;101581.09;5206580;28;20037;-74
2023/09/08 01:27:37;;;;;;;6.07;5.10;;;;;;;20.55;100.00;101587.66;5206518;28;20035;-74
2023/09/08 01:30:09;;;;;;;7.88;5.75;;;;;;;20.44;100.00;101583.53;5189177;28;20034;-74
2023/09/08 01:32:41;;;;;;;8.00;5.93;;;;;;;20.41;100.00;101583.88;5206885;28;20072;-74
2023/09/08 01:35:12;;;;;;;8.37;5.93;;;;;;;20.31;100.00;101580.63;5206478;28;20021;-74
2023/09/08 01:37:48;;;;;;;8.90;5.73;;;;;;;20.39;100.00;101585.91;5205603;28;20812;-74
2023/09/08 01:40:19;;;;;;;5.95;5.35;;;;;;;20.24;100.00;101579.69;5205331;28;20032;-74
2023/09/08 01:42:51;;;;;;;7.77;5.30;;;;;;;20.22;100.00;101584.34;5207021;28;20972;-74
2023/09/08 01:45:22;;;;;;;6.00;5.17;;;;;;;20.17;100.00;101576.88;5206196;28;20120;-74
2023/09/08 01:47:53;;;;;;;5.77;5.27;;;;;;;20.19;100.00;101590.81;5206015;28;20108;-74
2023/09/08 01:50:25;;;;;;;7.77;6.33;;;;;;;20.13;100.00;101587.06;5206133;28;20030;-74
2023/09/08 01:52:56;;;;;;;7.60;5.67;;;;;;;20.05;100.00;101568.47;5206779;28;20033;-74
2023/09/08 01:55:27;;;;;;;6.73;5.13;;;;;;;20.07;100.00;101577.09;5206180;28;20113;-74
2023/09/08 01:57:59;;;;;;;8.27;6.05;;;;;;;20.01;100.00;101569.84;5206049;28;20033;-74
2023/09/08 02:00:30;;;;;;;8.77;5.60;;;;;;;19.97;100.00;101565.03;5207387;28;20464;-74
2023/09/08 02:03:01;;;;;;;5.85;5.28;;;;;;;19.93;100.00;101567.22;5206713;28;20022;-74
2023/09/08 02:05:34;;;;;;;6.13;5.57;;;;;;;19.89;100.00;101579.22;5206489;28;20029;-74
2023/09/08 02:08:05;;;;;;;6.38;5.55;;;;;;;19.78;100.00;101568.94;5205661;28;20088;-74
2023/09/08 02:10:40;;;;;;;6.40;5.77;;;;;;;19.86;100.00;101572.41;5205887;28;20033;-74
2023/09/08 02:13:11;;;;;;;6.90;5.65;;;;;;;19.65;100.00;101564.16;5206204;28;20442;-74
2023/09/08 02:15:42;;;;;;;9.83;6.33;;;;;;;19.78;100.00;101576.94;5206699;28;20030;-74
2023/09/08 02:18:14;;;;;;;8.27;5.87;;;;;;;19.68;100.00;101577.94;5209024;28;20387;-74
2023/09/08 02:20:45;;;;;;;6.20;5.50;;;;;;;19.64;100.00;101573.16;5209835;28;20420;-74
2023/09/08 02:23:16;;;;;;;6.80;5.90;;;;;;;19.63;100.00;101571.50;5210026;28;20026;-74
2023/09/08 02:25:48;;;;;;;6.90;6.20;;;;;;;19.57;100.00;101578.28;5210152;28;20037;-74
2023/09/08 02:28:19;;;;;;;6.50;5.90;;;;;;;19.58;100.00;101571.97;5209281;28;20630;-74
2023/09/08 02:30:50;;;;;;;7.03;6.00;;;;;;;19.66;100.00;101561.34;5209604;28;20033;-74
2023/09/08 02:33:22;;;;;;;7.87;6.33;;;;;;;19.56;100.00;101562.53;5210092;28;20128;-74
2023/09/08 02:35:53;;;;;;;6.20;5.57;;;;;;;19.53;100.00;101560.19;5209732;28;20026;-74
2023/09/08 02:38:24;;;;;;;6.28;5.28;;;;;;;19.46;100.00;101557.38;5210331;28;20049;-74
2023/09/08 02:40:56;;;;;;;6.13;5.53;;;;;;;19.40;100.00;101552.78;5216680;28;20217;-74
2023/09/08 02:43:28;;;;;;;6.33;5.73;;;;;;;19.43;100.00;101563.03;5210814;28;20237;-74
2023/09/08 02:45:59;;;;;;;8.00;5.88;;;;;;;19.35;100.00;101569.22;5209864;28;20550;-74
2023/09/08 02:48:30;;;;;;;9.70;6.00;;;;;;;19.38;100.00;101566.22;5209416;28;20034;-74
2023/09/08 02:51:01;;;;;;;7.73;5.83;;;;;;;19.34;100.00;101569.38;5210378;28;20040;-74
2023/09/08 02:53:33;;;;;;;6.47;5.88;;;;;;;19.30;100.00;101565.41;5192715;28;20555;-74
2023/09/08 02:56:05;;;;;;;7.50;6.10;;;;;;;19.29;100.00;101569.06;5208268;28;20387;-74
2023/09/08 02:58:36;;;;;;;6.60;5.70;;;;;;;19.18;100.00;101563.13;5209192;28;20041;-74
2023/09/08 03:01:15;;;;;;;8.40;6.17;;;;;;;19.20;100.00;101558.44;5209360;28;20010;-74
2023/09/08 03:03:47;;;;;;;6.50;5.85;;;;;;;19.07;100.00;101566.13;5209119;28;20037;-74
2023/09/08 03:06:20;;;;;;;7.25;6.20;;;;;;;19.20;100.00;101560.28;5208658;28;20026;-74
2023/09/08 03:08:51;;;;;;;8.82;6.13;;;;;;;19.08;100.00;101559.81;5208422;28;20441;-74
2023/09/08 03:11:23;;;;;;;6.17;5.57;;;;;;;19.12;100.00;101562.94;5209840;28;20034;-74
2023/09/08 03:13:54;;;;;;;7.63;6.68;;;;;;;19.09;100.00;101558.81;5208967;28;20325;-74
2023/09/08 03:16:25;;;;;;;7.25;6.43;;;;;;;19.03;100.00;101564.81;5209736;28;20065;-74
2023/09/08 03:18:58;;;;;;;8.27;6.30;;;;;;;19.04;100.00;101560.31;5209924;28;20042;-74
2023/09/08 03:21:29;;;;;;;6.60;5.82;;;;;;;19.05;100.00;101562.78;5209719;28;20025;-74
2023/09/08 03:24:01;;;;;;;6.63;5.97;;;;;;;19.04;100.00;101561.13;5210274;28;20052;-74
2023/09/08 03:26:32;;;;;;;6.77;6.13;;;;;;;18.99;100.00;101562.66;5209047;28;20030;-74
2023/09/08 03:29:03;;;;;;;7.77;6.97;;;;;;;18.98;100.00;101561.81;5208163;28;20036;-74
2023/09/08 03:31:35;;;;;;;8.03;6.50;;;;;;;19.01;100.00;101561.47;5208174;28;20034;-74
2023/09/08 03:34:06;;;;;;;8.93;6.13;;;;;;;18.96;100.00;101561.97;5192409;28;20030;-74
2023/09/08 03:36:38;;;;;;;7.55;6.38;;;;;;;18.94;100.00;101560.47;5209378;28;20048;-74
2023/09/08 03:39:09;;;;;;;6.95;6.25;;;;;;;18.93;100.00;101545.56;5208027;28;20036;-74
2023/09/08 03:41:40;;;;;;;8.17;7.03;;;;;;;18.93;100.00;101550.84;5208755;28;20116;-74
2023/09/08 03:44:11;;;;;;;6.97;6.30;;;;;;;18.87;100.00;101552.38;5209181;28;20030;-74
2023/09/08 03:46:43;;;;;;;8.47;6.07;;;;;;;18.83;100.00;101552.88;5208912;28;20404;-74
2023/09/08 03:49:14;;;;;;;7.03;6.28;;;;;;;18.81;100.00;101552.19;5206626;28;20369;-74
2023/09/08 03:51:45;;;;;;;9.80;6.75;;;;;;;18.80;100.00;101555.88;5208240;28;20068;-74
2023/09/08 03:54:17;;;;;;;8.63;7.03;;;;;;;18.76;100.00;101546.56;5207746;28;20420;-74
2023/09/08 03:56:48;;;;;;;7.05;6.43;;;;;;;18.74;100.00;101545.91;5208020;28;20861;-74
2023/09/08 03:59:19;;;;;;;7.13;6.43;;;;;;;18.75;100.00;101550.19;5207745;28;20441;-74
2023/09/08 04:01:50;;;;;;;7.30;6.35;;;;;;;18.74;100.00;101553.88;5206415;28;20064;-74
2023/09/08 04:04:22;;;;;;;8.25;6.18;;;;;;;18.71;100.00;101547.91;5207997;28;20128;-74
2023/09/08 04:06:53;;;;;;;6.28;5.68;;;;;;;18.69;100.00;101546.38;5209307;28;20037;-74
2023/09/08 04:09:24;;;;;;;7.90;6.75;;;;;;;18.67;100.00;101546.53;5208305;28;20037;-74
2023/09/08 04:11:55;;;;;;;9.30;6.63;;;;;;;18.64;100.00;101540.75;5208620;28;20041;-74
2023/09/08 04:14:28;;;;;;;7.60;6.80;;;;;;;18.65;100.00;101543.22;5208923;28;20781;-74
2023/09/08 04:16:59;;;;;;;7.40;6.70;;;;;;;18.62;100.00;101545.38;5208288;28;20471;-74
2023/09/08 04:19:30;;;;;;;7.55;6.63;;;;;;;18.59;100.00;101543.88;5207902;28;20037;-74
2023/09/08 04:22:02;;;;;;;8.63;7.00;;;;;;;18.60;100.00;101545.56;5208133;28;20032;-74
2023/09/08 04:24:37;;;;;;;8.03;6.33;;;;;;;18.63;100.00;101545.19;5209133;28;20037;-74
2023/09/08 04:27:10;;;;;;;8.60;6.85;;;;;;;18.48;100.00;101544.19;5208515;28;20029;-74
2023/09/08 04:29:41;;;;;;;8.88;6.25;;;;;;;18.55;100.00;101539.88;5207927;28;20395;-74
2023/09/08 04:32:12;;;;;;;8.43;6.80;;;;;;;18.56;100.00;101538.06;5208708;28;20025;-74
2023/09/08 04:34:44;;;;;;;7.55;6.85;;;;;;;18.51;100.00;101535.09;5208492;28;20064;-74
2023/09/08 04:37:16;;;;;;;8.00;6.88;;;;;;;18.47;100.00;101539.88;5207855;28;20034;-74
2023/09/08 04:39:47;;;;;;;8.38;7.57;;;;;;;18.47;100.00;101537.25;5208588;28;20045;-74
2023/09/08 04:42:18;;;;;;;10.35;7.28;;;;;;;18.44;100.00;101535.72;5207854;28;20025;-74
2023/09/08 04:44:50;;;;;;;7.90;6.85;;;;;;;18.44;100.00;101537.56;5205103;28;20149;-74
2023/09/08 04:47:21;;;;;;;10.80;6.88;;;;;;;18.38;100.00;101528.44;5207899;28;20053;-73
2023/09/08 04:49:52;;;;;;;7.53;6.82;;;;;;;18.43;100.00;101538.56;5206955;28;20038;-74
2023/09/08 04:52:23;;;;;;;7.70;6.97;;;;;;;18.44;100.00;101542.88;5195180;28;20096;-73
2023/09/08 04:54:55;;;;;;;7.35;6.68;;;;;;;18.48;100.00;101545.03;5194861;28;20029;-74
2023/09/08 04:57:26;;;;;;;7.88;7.07;;;;;;;18.38;100.00;101538.25;5193729;28;20391;-75
2023/09/08 04:59:57;;;;;;;11.45;7.45;;;;;;;18.41;100.00;101552.00;5200073;28;20469;-74
2023/09/08 05:02:28;;;;;;;8.55;7.68;;;;;;;18.44;100.00;101542.88;5207285;28;20104;-74
2023/09/08 05:05:00;;;;;;;8.77;6.90;;;;;;;18.50;100.00;101552.00;5203164;28;20064;-74
2023/09/08 05:07:31;;;;;;;9.02;6.75;;;;;;;18.46;100.00;101551.50;5206044;28;20088;-74
2023/09/08 05:10:02;;;;;;;7.40;6.70;;;;;;;18.41;100.00;101552.00;5184733;28;20121;-74
2023/09/08 05:12:34;;;;;;;9.88;7.57;;;;;;;18.38;100.00;101543.53;5206019;28;20030;-74
2023/09/08 05:15:10;;;;;;;8.05;7.25;;;;;;;18.41;100.00;101546.69;5205692;28;20040;-74
2023/09/08 05:17:41;;;;;;;8.00;7.20;;;;;;;18.34;100.00;101536.91;5205485;28;20037;-74
2023/09/08 05:20:13;;;;;;;9.70;7.55;;;;;;;18.45;100.00;101558.63;5205869;28;20030;-74
2023/09/08 05:22:44;;;;;;;10.15;7.53;;;;;;;18.44;100.00;101554.31;5204725;28;20025;-74
2023/09/08 05:25:15;;;;;;;9.05;8.15;;;;;;;18.45;100.00;101553.34;5206032;28;20049;-74
2023/09/08 05:27:48;;;;;;;9.98;8.00;;;;;;;18.48;100.00;101555.63;5205950;28;20458;-74
2023/09/08 05:30:19;;;;;;;;;;;;;;;19.27;100.00;101557.78;5204900;28;20076;-74
2023/09/08 05:32:51;;;;;;;8.77;7.37;;;;;;;18.56;100.00;101552.19;5207270;28;19921;-74
2023/09/08 05:35:22;;;;;;;8.23;7.38;;;;;;;18.61;100.00;101552.50;5205781;28;20029;-73
2023/09/08 05:37:53;;;;;;;9.65;8.02;;;;;;;18.67;100.00;101557.13;5205474;28;20783;-74
2023/09/08 05:40:26;;;;;;;9.32;8.30;;;;;;;18.67;100.00;101548.34;5206347;28;20500;-74
2023/09/08 05:42:57;;;;;;;12.57;8.43;;;;;;;18.74;100.00;101559.16;5204854;28;20145;-74
2023/09/08 05:45:30;;;;;;;13.63;8.02;;;;;;;18.74;100.00;101562.66;5207316;28;20046;-74
2023/09/08 05:48:03;;;;;;;9.98;8.48;;;;;;;18.74;100.00;101572.44;5205333;28;20372;-74
2023/09/08 05:50:34;;;;;;;13.43;8.20;;;;;;;18.85;100.00;101570.28;5204411;28;20604;-74
2023/09/08 05:53:05;;;;;;;9.77;7.80;;;;;;;18.91;100.00;101574.13;5208465;28;20034;-74
2023/09/08 05:55:36;;;;;;;9.07;8.18;;;;;;;19.02;100.00;101567.63;5209546;28;20025;-74
2023/09/08 05:58:08;;;;;;;12.13;8.13;;;;;;;19.06;100.00;101567.13;5205899;28;20371;-75
2023/09/08 06:00:39;;;;;;;10.57;8.20;;;;;;;19.07;100.00;101567.94;5210018;28;20037;-74
2023/09/08 06:03:11;;;;;;;11.63;9.07;;;;;;;19.16;100.00;101559.78;5207174;28;20064;-74
2023/09/08 06:05:42;;;;;;;9.48;8.23;;;;;;;19.16;100.00;101566.94;5208388;28;20149;-74
2023/09/08 06:08:13;;;;;;;10.40;8.40;;;;;;;19.24;100.00;101553.63;5206592;28;20373;-74
2023/09/08 06:10:44;;;;;;;10.75;8.13;;;;;;;19.34;100.00;101566.72;5209508;28;20063;-74
2023/09/08 06:13:16;;;;;;;9.65;8.13;;;;;;;19.36;100.00;101567.41;5204895;28;20507;-74
2023/09/08 06:15:47;;;;;;;9.30;7.97;;;;;;;19.41;100.00;101573.03;5209693;28;20032;-74
2023/09/08 06:18:18;;;;;;;13.05;9.00;;;;;;;19.47;100.00;101577.63;5208934;28;20030;-74
2023/09/08 06:20:50;;;;;;;10.98;8.63;;;;;;;19.55;100.00;101574.16;5208924;28;20472;-74
2023/09/08 06:23:21;;;;;;;10.83;8.63;;;;;;;19.63;100.00;101580.31;5209660;28;20116;-74
2023/09/08 06:25:59;;;;;;;11.60;8.63;;;;;;;19.75;100.00;101578.09;5208448;28;20088;-74
2023/09/08 06:28:31;;;;;;;11.68;8.55;;;;;;;19.80;100.00;101574.91;5208640;28;20030;-74
2023/09/08 06:31:04;;;;;;;12.07;8.82;;;;;;;19.90;100.00;101580.84;5207834;28;20560;-74
2023/09/08 06:33:35;;;;;;;11.23;8.95;;;;;;;20.01;100.00;101583.13;5208520;28;20108;-74
2023/09/08 06:36:06;;;;;;;10.70;8.38;;;;;;;20.15;100.00;101578.88;5209532;28;20044;-74
2023/09/08 06:38:38;;;;;;;10.75;8.60;;;;;;;20.27;100.00;101579.34;5207397;28;20036;-74
2023/09/08 06:41:11;;;;;;;11.63;9.35;;;;;;;20.43;100.00;101587.22;5206545;28;20380;-74
2023/09/08 06:43:44;;;;;;;8.90;8.07;;;;;;;20.38;100.00;101574.44;5206519;28;20033;-74
2023/09/08 06:46:15;;;;;;;10.38;7.93;;;;;;;20.50;100.00;101585.53;5208355;28;20443;-74
2023/09/08 06:48:46;;;;;;;10.60;8.63;;;;;;;20.65;100.00;101578.44;5209003;28;20026;-74
2023/09/08 06:51:18;;;;;;;13.80;8.00;;;;;;;20.81;100.00;101587.28;5209363;28;20060;-74
2023/09/08 06:53:56;;;;;;;12.88;9.07;;;;;;;21.04;100.00;101592.56;5207402;28;20353;-74
2023/09/08 06:56:27;;;;;;;15.10;8.52;;;;;;;21.08;100.00;101591.22;5207004;28;20030;-74
2023/09/08 06:58:59;;;;;;;12.77;8.57;;;;;;;21.21;100.00;101590.56;5207430;28;20561;-74
2023/09/08 07:01:30;;;;;;;11.97;8.63;;;;;;;21.27;100.00;101588.00;5209381;28;20484;-74
2023/09/08 07:04:01;;;;;;;10.27;8.30;;;;;;;21.45;100.00;101586.88;5189064;28;20032;-74
2023/09/08 07:06:33;;;;;;;10.40;8.23;;;;;;;21.53;100.00;101594.78;5210149;28;20034;-74
2023/09/08 07:09:05;;;;;;;10.67;9.13;;;;;;;21.60;100.00;101585.84;5207893;28;20033;-74
2023/09/08 07:11:36;;;;;;;11.77;7.77;;;;;;;21.83;100.00;101596.41;5208102;28;20489;-74
2023/09/08 07:14:07;;;;;;;11.37;8.70;;;;;;;21.97;100.00;101591.22;5207461;28;20083;-74
2023/09/08 07:16:39;;;;;;;8.60;7.70;;;;;;;22.06;100.00;101588.28;5209509;28;20543;-74
2023/09/08 07:19:10;;;;;;;10.10;8.70;;;;;;;22.20;100.00;101591.09;5208043;28;20117;-74
2023/09/08 07:21:41;;;;;;;9.23;7.70;;;;;;;22.34;100.00;101595.59;5208551;28;20026;-74
2023/09/08 07:24:12;;;;;;;10.33;8.10;;;;;;;22.41;100.00;101596.47;5207997;28;20026;-74
2023/09/08 07:26:44;;;;;;;8.80;7.93;;;;;;;22.57;100.00;101593.56;5208772;28;20061;-74
2023/09/08 07:29:15;;;;;;;9.63;8.00;;;;;;;22.69;100.00;101595.72;5208055;28;20258;-74
2023/09/08 07:31:46;;;;;;;8.83;7.67;;;;;;;22.70;100.00;101597.38;5208392;28;20060;-74
2023/09/08 07:34:17;;;;;;;9.13;8.07;;;;;;;22.92;100.00;101599.06;5208107;28;20041;-74
2023/09/08 07:36:49;;;;;;;9.63;7.87;;;;;;;22.99;100.00;101605.25;5207583;28;21157;-74
2023/09/08 07:39:20;;;;;;;12.27;8.43;;;;;;;23.12;100.00;101598.38;5207430;28;20494;-74
2023/09/08 07:41:53;;;;;;;8.43;7.57;;;;;;;23.27;100.00;101601.78;5208109;28;20054;-75
2023/09/08 07:44:24;;;;;;;;;;;;;;;23.92;100.00;101600.50;5209393;28;20340;-75
2023/09/08 07:46:56;;;;;;;8.45;6.80;;;;;;;23.54;100.00;101590.19;5207953;28;20012;-75
2023/09/08 07:49:27;;;;;;;7.57;6.27;;;;;;;23.68;100.00;101593.00;5206938;28;20491;-75
2023/09/08 07:51:58;;;;;;;9.33;6.37;;;;;;;23.79;100.00;101600.47;5207010;28;20487;-74
2023/09/08 07:54:30;;;;;;;9.17;6.03;;;;;;;23.90;100.00;101594.50;5207478;28;20034;-75
2023/09/08 07:57:02;;;;;;;6.57;5.63;;;;;;;24.01;100.00;101587.75;5207577;28;20856;-74
2023/09/08 07:59:33;;;;;;;6.87;5.93;;;;;;;24.00;100.00;101583.44;5207718;28;20084;-75
2023/09/08 08:02:04;;;;;;;6.97;6.37;;;;;;;24.20;100.00;101584.31;5207303;28;20028;-74
2023/09/08 08:04:36;;;;;;;6.90;6.17;;;;;;;24.33;100.00;101582.72;5207795;28;20698;-75
2023/09/08 08:07:07;;;;;;;8.77;6.27;;;;;;;24.44;100.00;101584.81;5207014;28;20506;-75
2023/09/08 08:09:38;;;;;;;8.70;6.10;;;;;;;24.64;100.00;101590.19;5205398;28;20395;-75
2023/09/08 08:12:09;;;;;;;6.50;5.90;;;;;;;24.79;100.00;101584.63;5206693;28;20377;-75
2023/09/08 08:14:41;;;;;;;7.53;5.63;;;;;;;24.86;99.32;101593.50;5207243;28;20056;-75
2023/09/08 08:17:12;;;;;;;9.60;5.43;;;;;;;24.95;97.11;101578.84;5207607;28;20068;-75
2023/09/08 08:19:43;;;;;;;5.80;5.20;;;;;;;25.20;100.00;101590.63;5208209;28;20044;-75
2023/09/08 08:22:15;;;;;;;11.13;5.30;;;;;;;25.27;96.03;101593.28;5206932;28;20025;-75
2023/09/08 08:24:46;;;;;;;5.30;4.77;;;;;;;25.51;94.05;101594.47;5207383;28;20048;-75
2023/09/08 08:27:17;;;;;;;5.67;4.80;;;;;;;25.64;90.73;101596.28;5205717;28;20327;-75
2023/09/08 08:29:49;;;;;;;9.53;5.70;;;;;;;25.76;90.98;101599.97;5207183;28;20057;-75
2023/09/08 08:32:20;;;;;;;6.13;5.53;;;;;;;25.81;91.26;101600.19;5207057;28;20068;-75
2023/09/08 08:34:51;;;;;;;8.17;5.60;;;;;;;25.89;87.75;101597.25;5207482;28;20057;-75
2023/09/08 08:37:23;;;;;;;9.40;5.53;;;;;;;26.10;86.81;101593.44;5205677;28;20033;-75
2023/09/08 08:39:54;;;;;;;5.70;4.93;;;;;;;26.21;85.59;101591.91;5207094;28;20033;-75
2023/09/08 08:42:33;;;;;;;9.10;5.10;;;;;;;26.39;86.32;101597.38;5206629;28;20044;-75
2023/09/08 08:45:05;;;;;;;9.15;5.10;;;;;;;26.31;84.84;101597.66;5188286;28;20076;-75
2023/09/08 08:47:37;;;;;;;6.15;4.82;;;;;;;26.48;78.79;101599.84;5205933;28;20037;-75
2023/09/08 08:50:10;;;;;;;6.17;4.43;;;;;;;26.61;79.40;101602.44;5204972;28;20057;-75
2023/09/08 08:52:42;;;;;;;6.13;4.40;;;;;;;26.61;76.00;101599.75;5207055;28;20025;-75
2023/09/08 08:55:16;;;;;;;6.00;4.93;;;;;;;26.82;78.39;101599.38;5206909;28;20041;-75
2023/09/08 08:57:48;;;;;;;6.18;4.82;;;;;;;26.88;75.09;101587.75;5206894;28;20140;-75
2023/09/08 09:00:19;;;;;;;7.20;4.80;;;;;;;27.09;76.30;101591.09;5206989;28;20552;-75
2023/09/08 09:02:51;;;;;;;6.77;5.60;;;;;;;27.20;75.23;101590.38;5205820;28;20654;-75
2023/09/08 09:05:23;;;;;;;6.53;4.80;;;;;;;27.35;73.64;101593.53;5188429;28;20033;-76
2023/09/08 09:07:57;;;;;;;6.00;4.70;;;;;;;27.50;73.71;101589.63;5206262;28;20097;-75
2023/09/08 09:10:31;;;;;;;5.22;4.65;;;;;;;27.49;73.59;101596.06;5207701;28;20022;-76
2023/09/08 09:13:02;;;;;;;8.40;4.97;;;;;;;27.69;71.99;101588.56;5209203;28;20443;-75
2023/09/08 09:15:33;;;;;;;6.07;4.63;;;;;;;27.78;71.08;101586.44;5206407;28;20312;-76
2023/09/08 09:18:06;;;;;;;5.90;4.57;;;;;;;27.80;71.81;101598.63;5206611;28;20030;-75
2023/09/08 09:20:37;;;;;;;7.30;4.82;;;;;;;27.86;67.86;101592.34;5206176;28;20068;-76
2023/09/08 09:23:10;;;;;;;7.80;5.00;;;;;;;27.99;68.25;101596.72;5206674;28;20030;-75
2023/09/08 09:25:41;;;;;;;;;;;;;;;28.75;65.53;101597.06;5207597;28;20384;-76
2023/09/08 09:28:13;;;;;;;7.80;5.13;;;;;;;28.40;65.85;101587.06;5205486;28;19922;-76
2023/09/08 09:30:49;;;;;;;8.30;4.80;;;;;;;28.45;66.71;101597.13;5207204;28;20140;-75
2023/09/08 09:33:22;;;;;;;7.03;4.72;;;;;;;28.30;63.95;101592.16;5205000;28;20052;-75
2023/09/08 09:35:54;;;;;;;;;;;;;;;29.11;65.69;101587.97;5206697;28;20029;-76
2023/09/08 09:38:27;;;;;;;5.60;4.63;;;;;;;28.64;64.55;101596.03;5204838;28;19917;-76
2023/09/08 09:40:58;;;;;;;7.25;4.82;;;;;;;28.61;62.35;101597.31;5207253;28;20029;-76
2023/09/08 09:43:30;;;;;;;6.77;4.90;;;;;;;28.86;64.59;101596.25;5206003;28;20549;-76
2023/09/08 09:46:02;;;;;;;7.22;4.55;;;;;;;28.92;65.71;101589.13;5205758;28;20045;-76
2023/09/08 09:48:34;;;;;;;7.10;4.80;;;;;;;29.02;61.15;101590.22;5204828;28;20038;-76
2023/09/08 09:51:16;;;;;;;8.40;4.75;;;;;;;29.31;63.68;101585.72;5189124;28;20122;-76
2023/09/08 09:53:54;;;;;;;5.47;4.70;;;;;;;29.18;63.29;101591.38;5206647;28;20060;-75
2023/09/08 09:56:26;;;;;;;8.23;4.57;;;;;;;29.32;61.43;101591.94;5206088;28;20030;-75
2023/09/08 09:58:59;;;;;;;5.10;4.50;;;;;;;29.20;60.06;101589.25;5205899;28;20030;-75
2023/09/08 10:01:32;;;;;;;5.68;4.47;;;;;;;29.47;58.88;101591.44;5205821;28;20546;-75
2023/09/08 10:04:05;;;;;;;6.13;4.60;;;;;;;29.54;58.10;101595.66;5205508;28;20365;-75
2023/09/08 10:06:39;;;;;;;8.88;4.50;;;;;;;29.73;59.68;101588.22;5203613;28;20034;-75
2023/09/08 10:09:19;;;;;;;6.10;4.60;;;;;;;29.95;59.38;101587.59;5205470;28;20448;-75
2023/09/08 10:11:54;;;;;;;7.38;4.78;;;;;;;30.03;58.16;101587.19;5206728;28;20061;-75
2023/09/08 10:14:28;;;;;;;8.43;4.85;;;;;;;30.10;57.87;101581.66;5205996;28;20057;-75
2023/09/08 10:17:00;;;;;;;7.97;5.00;;;;;;;29.99;56.13;101580.63;5206463;28;20018;-75
2023/09/08 10:19:36;;;;;;;8.95;4.97;;;;;;;30.17;58.16;101588.56;5204173;28;20044;-75
2023/09/08 10:22:12;;;;;;;10.00;4.68;;;;;;;30.43;56.77;101592.53;5205110;28;20029;-75
2023/09/08 10:24:46;;;;;;;6.10;4.40;;;;;;;30.28;55.68;101582.28;5205557;28;20431;-75
2023/09/08 10:27:20;;;;;;;6.32;4.88;;;;;;;30.40;54.87;101581.41;5206225;28;20371;-75
2023/09/08 10:29:52;;;;;;;5.95;4.57;;;;;;;30.44;56.17;101577.94;5206318;28;20099;-75
2023/09/08 10:32:24;;;;;;;7.18;4.43;;;;;;;30.64;52.91;101588.28;5204474;28;20033;-75
2023/09/08 10:34:57;;;;;;;7.05;4.68;;;;;;;30.49;55.40;101585.31;5206907;28;20037;-75
2023/09/08 10:37:32;;;;;;;8.90;4.50;;;;;;;30.63;55.18;101575.81;5205258;28;20072;-75
2023/09/08 10:40:27;;;;;;;6.60;4.38;;;;;;;31.18;54.69;101585.06;5208730;28;20094;-75
2023/09/08 10:43:11;;;;;;;9.13;4.68;;;;;;;31.16;53.12;101581.78;5209796;28;20473;-75
2023/09/08 10:45:42;;;;;;;5.35;4.82;;;;;;;30.90;52.82;101581.41;5209683;28;20034;-75
2023/09/08 10:48:15;;;;;;;7.23;4.63;;;;;;;30.96;52.52;101579.59;5208358;28;20025;-75
2023/09/08 10:50:47;;;;;;;9.32;4.35;;;;;;;30.91;51.29;101577.66;5208447;28;20687;-75
2023/09/08 10:53:19;;;;;;;5.38;4.18;;;;;;;31.06;53.32;101577.03;5210217;28;20025;-75
2023/09/08 10:55:53;;;;;;;6.75;4.22;;;;;;;31.23;51.05;101585.13;5208947;28;20125;-76
2023/09/08 10:58:31;;;;;;;5.72;4.05;;;;;;;31.26;51.49;101571.91;5206986;28;20046;-76
2023/09/08 11:01:04;;;;;;;6.65;4.53;;;;;;;31.16;54.45;101579.06;5209681;28;20025;-75
2023/09/08 11:03:38;;;;;;;10.00;4.75;;;;;;;31.47;51.39;101580.31;5206558;28;20041;-75
2023/09/08 11:06:09;;;;;;;7.60;5.00;;;;;;;31.29;50.48;101578.69;5210326;28;20022;-76
2023/09/08 11:08:43;;;;;;;8.17;4.07;;;;;;;31.56;49.30;101576.09;5209677;28;20040;-75
2023/09/08 11:11:16;;;;;;;5.82;4.32;;;;;;;31.52;49.43;101574.97;5208851;28;20595;-75
2023/09/08 11:13:47;;;;;;;7.10;4.68;;;;;;;31.67;50.46;101574.31;5210000;28;20559;-76
2023/09/08 11:16:23;;;;;;;7.47;4.03;;;;;;;31.89;49.11;101577.84;5209807;28;20026;-75
2023/09/08 11:18:54;;;;;;;7.43;4.30;;;;;;;32.08;49.03;101575.59;5207848;28;20112;-76
2023/09/08 11:21:25;;;;;;;5.27;4.53;;;;;;;31.96;48.56;101575.75;5207430;28;20033;-76
2023/09/08 11:23:57;;;;;;;6.67;4.17;;;;;;;32.12;46.21;101575.91;5210655;28;20095;-76
2023/09/08 11:26:28;;;;;;;4.33;3.80;;;;;;;32.03;47.14;101572.03;5210017;28;20303;-76
2023/09/08 11:29:00;;;;;;;7.63;4.35;;;;;;;32.15;47.03;101573.50;5211776;28;20472;-76
2023/09/08 11:31:31;;;;;;;6.45;4.70;;;;;;;32.23;46.84;101569.50;5209398;28;20496;-76
2023/09/08 11:34:05;;;;;;;5.85;3.95;;;;;;;32.15;46.34;101576.22;5209326;28;20030;-76
2023/09/08 11:36:36;;;;;;;5.45;3.67;;;;;;;32.35;46.87;101569.31;5209958;28;20026;-76
2023/09/08 11:39:10;;;;;;;7.67;4.27;;;;;;;32.38;48.60;101576.97;5208819;28;20032;-76
2023/09/08 11:41:41;;;;;;;7.00;4.10;;;;;;;32.30;47.23;101567.41;5209173;28;20384;-76